Wales, AK

12:02 AM AKDT on August 31, 2014 (GMT -0800)
Tin City LRRS | Change Station
CLOSE
Current Station
Airport
Location: Tin City,
Elevation: 272 ft
Nearby Weather Stations

Elev 272 ft 65.56 °N, 167.92 °W | Updated 7 minutes ago

Light Rain
Light Rain
42 °F
Feels Like 39 °F
N
5
Wind Variable Wind from NW

Today
High -- | Low -- °F
--% Chance of Precip.
Yesterday
High -- | Low -- °F
Precip. -- in
7:46 AM 10:35 PM
Waxing Crescent, 28% visible
Pressure 29.74 in
Visibility 10.0 miles
Clouds Overcast 2800 ft
Windchill 39 °F
Dew Point 39 °F
Humidity 89%
Rainfall 0.03 in
Snow Depth Not available.
UV 0 out of 12
Pollen Not available.
Air Quality Not available.
Flu Activity Not available.
METAR PATC 310755Z AUTO 31004KT 10SM -RA OVC028 06/04 A2974 RMK AO2 DZB0653E0703RAB0703 SLP071 P0002 T00560039

More Conditions Fewer Conditions

Pressure 29.74 in
Visibility 10.0 miles
Clouds Overcast 2800 ft
Windchill 39 °F
Dew Point 39 °F
Humidity 89%
Rainfall 0.03 in
Snow Depth Not available.
UV 0 out of 12
Pollen Not available.
Air Quality Not available.
Flu Activity Not available.
METAR PATC 310755Z AUTO 31004KT 10SM -RA OVC028 06/04 A2974 RMK AO2 DZB0653E0703RAB0703 SLP071 P0002 T00560039

More Conditions Fewer Conditions

10-Day Weather Forecast

Almanac

Astronomy

Aug. 31, 2014 Rise Set
Actual Time 7:46 AM AKDT 10:35 PM AKDT
Civil Twilight 6:48 AM AKDT 11:32 PM AKDT
Nautical Twilight 5:23 AM AKDT 12:54 AM AKDT
Astronomical Twilight 3:44 AM AKDT 2:39 AM AKDT
Moon 4:18 PM AKDT 11:23 PM AKDT
Length of Visible Light 16h 43m
Length of Day
14h 48m
Tomorrow will be 7m 0s shorter.
Waxing Crescent, 28% of the Moon is Illuminated
Today
Waxing Crescent
Sep 2
First Quarter
Sep 8
Full
Sep 15
Last Quarter
Sep 24
New

Community

WunderPhotos

Upload Photos

1,748,816 photos uploaded!

Nearby

Snow Depth

Station Depth Elevation
Rocky Point 4 in 500 ft
Gobblers Knob 0 in 2030 ft
Coldfoot 0 in 1040 ft
Atigun Pass 3 in 4800 ft
Imnaviat Creek 1 in 3050 ft

Earthquake Activity

City Distance Mag. Time & Date
No recent earthquake activity has been reported nearby.
Minimum magnitude displayed is 2.5.

Coastal Water Temperatures

Place Temperature
No Stations Reporting

Nearby Weather Stations